createdAt,value
2018-04-22T00:01:18.015Z,59.68
2018-04-22T00:03:46.436Z,59.47
2018-04-22T00:06:14.815Z,59.43
2018-04-22T00:08:43.223Z,59.41
2018-04-22T00:11:11.598Z,59.64
2018-04-22T00:13:39.969Z,59.79
2018-04-22T00:16:08.344Z,59.98
2018-04-22T00:18:36.718Z,60.27
2018-04-22T00:21:05.152Z,60.43
2018-04-22T00:23:33.523Z,60.60
2018-04-22T00:26:01.886Z,60.82
2018-04-22T00:28:30.254Z,60.97
2018-04-22T00:30:58.678Z,61.26
2018-04-22T00:33:27.054Z,61.46
2018-04-22T00:35:55.434Z,61.58
2018-04-22T00:38:23.823Z,61.33
2018-04-22T00:40:52.196Z,61.28
2018-04-22T00:43:20.571Z,60.91
2018-04-22T00:45:48.943Z,60.46
2018-04-22T00:48:17.318Z,60.73
2018-04-22T00:50:45.508Z,60.82
2018-04-22T00:53:13.654Z,61.07
2018-04-22T00:55:42.026Z,61.10
2018-04-22T00:58:10.390Z,61.29
2018-04-22T01:00:38.758Z,61.44
2018-04-22T01:03:07.127Z,61.60
2018-04-22T01:05:35.503Z,61.52
2018-04-22T01:08:03.899Z,61.88
2018-04-22T01:10:32.296Z,61.86
2018-04-22T01:13:00.719Z,61.98
2018-04-22T01:15:29.294Z,62.29
2018-04-22T01:17:57.439Z,62.42
2018-04-22T01:20:25.810Z,62.50
2018-04-22T01:22:54.988Z,62.65
2018-04-22T01:25:23.408Z,62.74
2018-04-22T01:27:51.790Z,62.69
2018-04-22T01:30:20.233Z,62.88
2018-04-22T01:32:48.614Z,62.96
2018-04-22T01:35:16.982Z,62.59
2018-04-22T01:37:45.418Z,62.39
2018-04-22T01:40:13.842Z,62.57
2018-04-22T01:42:42.235Z,62.57
2018-04-22T01:45:10.595Z,62.89
2018-04-22T01:47:39.012Z,63.12
2018-04-22T01:50:07.391Z,63.11
2018-04-22T01:52:35.772Z,62.98
2018-04-22T01:55:04.157Z,63.07
2018-04-22T01:57:32.535Z,63.02
2018-04-22T02:00:00.974Z,63.10
2018-04-22T02:02:29.365Z,63.08
2018-04-22T02:04:57.793Z,62.93
2018-04-22T02:07:26.184Z,63.18
2018-04-22T02:09:54.559Z,63.27
2018-04-22T02:12:22.940Z,63.25
2018-04-22T02:14:51.321Z,62.67
2018-04-22T02:17:19.692Z,63.06
2018-04-22T02:19:48.087Z,63.57
2018-04-22T02:22:16.470Z,63.72
2018-04-22T02:24:44.844Z,63.69
2018-04-22T02:27:13.276Z,63.77
2018-04-22T02:29:41.847Z,63.78
2018-04-22T02:32:10.291Z,63.42
2018-04-22T02:34:38.670Z,63.53
2018-04-22T02:37:07.047Z,63.84
2018-04-22T02:39:35.413Z,63.87
2018-04-22T02:42:03.806Z,64.02
2018-04-22T02:44:32.184Z,64.22
2018-04-22T02:47:00.562Z,64.38
2018-04-22T02:49:28.960Z,64.43
2018-04-22T02:51:57.099Z,64.42
2018-04-22T02:54:25.534Z,64.54
2018-04-22T02:56:53.913Z,64.64
2018-04-22T02:59:22.275Z,64.78
2018-04-22T03:01:51.450Z,64.86
2018-04-22T03:04:20.307Z,65.03
2018-04-22T03:06:48.827Z,64.94
2018-04-22T03:09:17.208Z,65.04
2018-04-22T03:11:45.592Z,65.07
2018-04-22T03:14:13.958Z,64.79
2018-04-22T03:16:42.424Z,64.80
2018-04-22T03:19:10.803Z,64.81
2018-04-22T03:21:39.170Z,64.91
2018-04-22T03:24:07.549Z,65.28
2018-04-22T03:26:35.910Z,65.62
2018-04-22T03:29:04.282Z,65.56
2018-04-22T03:31:32.663Z,65.30
2018-04-22T03:34:01.031Z,65.05
2018-04-22T03:36:29.443Z,64.81
2018-04-22T03:38:57.861Z,64.83
2018-04-22T03:41:26.252Z,64.83
2018-04-22T03:43:54.636Z,64.72
2018-04-22T03:46:23.063Z,64.37
2018-04-22T03:48:51.435Z,64.34
2018-04-22T03:51:19.817Z,64.36
2018-04-22T03:53:48.187Z,64.25
2018-04-22T03:56:16.568Z,64.18
2018-04-22T03:58:44.956Z,64.20
2018-04-22T04:01:13.386Z,64.27
2018-04-22T04:03:41.800Z,64.43
2018-04-22T04:06:10.162Z,64.39
2018-04-22T04:08:38.540Z,64.48
2018-04-22T04:11:06.955Z,64.40
2018-04-22T04:13:35.333Z,64.29
2018-04-22T04:16:03.801Z,63.98
2018-04-22T04:21:49.930Z,59.95
2018-04-22T04:24:38.496Z,57.21
2018-04-22T04:27:18.082Z,54.72
2018-04-22T04:29:46.462Z,52.10
2018-04-22T04:32:14.879Z,50.68
2018-04-22T04:34:43.023Z,49.03
2018-04-22T04:37:11.395Z,47.17
2018-04-22T04:39:39.768Z,45.91
2018-04-22T04:42:08.156Z,44.86
2018-04-22T04:44:36.527Z,43.75
2018-04-22T04:47:04.894Z,42.37
2018-04-22T04:49:33.278Z,41.84
2018-04-22T04:52:01.716Z,41.39
2018-04-22T04:54:29.867Z,40.80
2018-04-22T04:56:58.226Z,40.06
2018-04-22T04:59:26.379Z,39.87
2018-04-22T05:01:54.753Z,40.19
2018-04-22T05:04:23.143Z,40.19
2018-04-22T05:06:51.577Z,41.18
2018-04-22T05:09:19.959Z,42.59
2018-04-22T05:11:48.334Z,43.87
2018-04-22T05:14:16.706Z,44.68
2018-04-22T05:16:45.137Z,45.86
2018-04-22T05:19:13.508Z,46.49
2018-04-22T05:21:41.937Z,47.15
2018-04-22T05:24:10.323Z,48.29
2018-04-22T05:26:38.704Z,48.27
2018-04-22T05:29:07.079Z,48.93
2018-04-22T05:31:35.510Z,49.49
2018-04-22T05:34:03.899Z,49.48
2018-04-22T05:36:32.366Z,49.51
2018-04-22T05:39:00.948Z,49.83
2018-04-22T05:41:29.328Z,49.56
2018-04-22T05:43:57.710Z,49.74
2018-04-22T05:46:26.094Z,49.61
2018-04-22T05:48:54.479Z,49.65
2018-04-22T05:51:23.591Z,49.96
2018-04-22T05:53:51.991Z,50.02
2018-04-22T05:56:20.418Z,50.20
2018-04-22T05:58:48.803Z,50.30
2018-04-22T06:01:17.233Z,50.72
2018-04-22T06:03:45.608Z,50.64
2018-04-22T06:06:13.986Z,50.67
2018-04-22T06:08:42.371Z,50.99
2018-04-22T06:11:10.756Z,51.11
2018-04-22T06:13:39.138Z,50.94
2018-04-22T06:16:07.303Z,51.15
2018-04-22T06:18:35.686Z,51.39
2018-04-22T06:21:04.063Z,51.08
2018-04-22T06:23:32.446Z,50.72
2018-04-22T06:26:00.899Z,50.92
2018-04-22T06:28:29.287Z,50.56
2018-04-22T06:30:57.694Z,50.98
2018-04-22T06:33:26.071Z,51.17
2018-04-22T06:35:54.519Z,50.68
2018-04-22T06:38:22.892Z,50.74
2018-04-22T06:40:51.271Z,50.28
2018-04-22T06:43:19.705Z,50.00
2018-04-22T06:45:48.087Z,49.72
2018-04-22T06:48:16.461Z,49.68
2018-04-22T06:50:44.837Z,49.59
2018-04-22T06:53:12.977Z,49.54
2018-04-22T06:55:41.346Z,49.38
2018-04-22T06:58:09.730Z,48.81
2018-04-22T07:00:38.166Z,49.15
2018-04-22T07:03:06.530Z,48.47
2018-04-22T07:05:34.899Z,48.32
2018-04-22T07:08:03.414Z,48.12
2018-04-22T07:10:31.793Z,48.26
2018-04-22T07:13:00.166Z,48.16
2018-04-22T07:15:28.534Z,48.02
2018-04-22T07:18:00.274Z,48.31
2018-04-22T07:20:28.714Z,48.17
2018-04-22T07:22:57.101Z,48.00
2018-04-22T07:25:25.534Z,47.67
2018-04-22T07:27:53.953Z,46.37
2018-04-22T07:30:22.408Z,46.52
2018-04-22T07:32:50.769Z,45.88
2018-04-22T07:35:19.186Z,45.92
2018-04-22T07:37:47.570Z,45.55
2018-04-22T07:40:15.940Z,45.59
2018-04-22T07:42:44.313Z,44.95
2018-04-22T07:45:12.687Z,44.49
2018-04-22T07:47:41.058Z,44.07
2018-04-22T07:50:09.443Z,43.92
2018-04-22T07:52:37.816Z,43.39
2018-04-22T07:55:06.195Z,42.86
2018-04-22T07:57:34.566Z,42.96
2018-04-22T08:00:03.794Z,42.84
2018-04-22T08:02:32.171Z,42.44
2018-04-22T08:05:00.560Z,41.85
2018-04-22T08:07:28.934Z,41.73
2018-04-22T08:09:57.323Z,41.48
2018-04-22T08:12:25.746Z,41.64
2018-04-22T08:14:53.890Z,41.14
2018-04-22T08:17:22.270Z,40.63
2018-04-22T08:19:50.657Z,40.28
2018-04-22T08:22:19.031Z,39.99
2018-04-22T08:24:47.455Z,39.88
2018-04-22T08:27:15.875Z,39.54
2018-04-22T08:29:44.250Z,39.22
2018-04-22T08:32:12.704Z,39.33
2018-04-22T08:34:40.880Z,38.50
2018-04-22T08:37:09.258Z,38.61
2018-04-22T08:39:37.670Z,38.06
2018-04-22T08:42:06.104Z,37.64
2018-04-22T08:44:34.467Z,36.62
2018-04-22T08:47:02.846Z,36.66
2018-04-22T08:49:31.224Z,36.40
2018-04-22T08:51:59.613Z,36.62
2018-04-22T08:54:28.000Z,36.90
2018-04-22T08:56:56.398Z,37.31
2018-04-22T08:59:24.790Z,36.58
2018-04-22T09:01:53.227Z,36.12
2018-04-22T09:04:22.326Z,35.39
2018-04-22T09:06:50.692Z,35.14
2018-04-22T09:09:19.080Z,35.87
2018-04-22T09:11:47.456Z,35.17
2018-04-22T09:14:15.869Z,35.96
2018-04-22T09:16:44.252Z,36.25
2018-04-22T09:19:12.618Z,35.60
2018-04-22T09:21:40.978Z,35.77
2018-04-22T09:24:09.357Z,35.90
2018-04-22T09:26:37.748Z,34.63
2018-04-22T09:29:06.130Z,34.48
2018-04-22T09:31:34.601Z,34.77
2018-04-22T09:34:03.020Z,35.51
2018-04-22T09:36:32.203Z,35.30
2018-04-22T09:39:00.574Z,35.36
2018-04-22T09:41:28.954Z,35.49
2018-04-22T09:43:57.378Z,35.86
2018-04-22T09:46:25.747Z,32.43
2018-04-22T09:48:54.171Z,33.05
2018-04-22T09:51:22.586Z,31.41
2018-04-22T09:53:50.953Z,31.50
2018-04-22T09:56:19.326Z,30.12
2018-04-22T09:58:47.690Z,30.81
2018-04-22T10:01:19.840Z,30.88
2018-04-22T10:03:47.984Z,30.40
2018-04-22T10:06:16.355Z,30.44
2018-04-22T10:08:44.735Z,30.95
2018-04-22T10:11:13.103Z,30.81
2018-04-22T10:13:41.502Z,30.30
2018-04-22T10:16:09.908Z,29.98
2018-04-22T10:18:38.285Z,29.37
2018-04-22T10:21:06.659Z,29.32
2018-04-22T10:23:35.059Z,28.66
2018-04-22T10:26:03.482Z,28.97
2018-04-22T10:28:31.886Z,28.29
2018-04-22T10:31:00.075Z,27.75
2018-04-22T10:33:28.453Z,28.83
2018-04-22T10:35:56.830Z,29.42
2018-04-22T10:38:25.247Z,29.69
2018-04-22T10:40:53.659Z,28.87
2018-04-22T10:43:22.071Z,29.15
2018-04-22T10:45:50.461Z,28.94
2018-04-22T10:48:18.850Z,28.88
2018-04-22T10:50:47.239Z,28.49
2018-04-22T10:53:15.630Z,28.86
2018-04-22T10:55:44.012Z,29.47
2018-04-22T10:58:12.440Z,29.19
2018-04-22T11:00:40.878Z,29.10
2018-04-22T11:03:09.254Z,29.08
2018-04-22T11:05:37.634Z,29.09
2018-04-22T11:08:06.074Z,29.09
2018-04-22T11:10:34.476Z,29.31
2018-04-22T11:13:02.881Z,29.18
2018-04-22T11:15:32.238Z,29.11
2018-04-22T11:18:00.609Z,28.74
2018-04-22T11:20:28.989Z,29.28
2018-04-22T11:22:57.372Z,29.21
2018-04-22T11:25:25.748Z,29.06
2018-04-22T11:27:54.126Z,29.61
2018-04-22T11:30:23.842Z,29.20
2018-04-22T11:32:52.199Z,29.44
2018-04-22T11:35:20.583Z,29.49
2018-04-22T11:37:48.965Z,29.75
2018-04-22T11:40:17.392Z,29.67
2018-04-22T11:42:45.768Z,29.18
2018-04-22T11:45:14.159Z,29.26
2018-04-22T11:47:42.527Z,29.22
2018-04-22T11:50:10.898Z,29.28
2018-04-22T11:52:39.262Z,29.30
2018-04-22T11:55:07.636Z,28.95
2018-04-22T11:57:36.052Z,29.10
2018-04-22T12:00:05.640Z,29.20
2018-04-22T12:02:34.004Z,29.25
2018-04-22T12:05:02.402Z,28.94
2018-04-22T12:07:30.766Z,29.30
2018-04-22T12:09:59.208Z,28.93
2018-04-22T12:12:27.588Z,28.77
2018-04-22T12:14:55.971Z,28.61
2018-04-22T12:17:24.367Z,28.76
2018-04-22T12:19:52.751Z,28.59
2018-04-22T12:22:21.165Z,28.74
2018-04-22T12:24:49.539Z,28.50
2018-04-22T12:27:18.830Z,28.65
2018-04-22T12:29:47.244Z,28.90
2018-04-22T12:32:15.612Z,28.08
2018-04-22T12:34:43.990Z,28.41
2018-04-22T12:37:12.350Z,28.16
2018-04-22T12:39:40.710Z,28.03
2018-04-22T12:42:09.120Z,28.25
2018-04-22T12:44:37.504Z,28.23
2018-04-22T12:47:05.928Z,28.31
2018-04-22T12:49:34.301Z,28.44
2018-04-22T12:52:02.667Z,28.25
2018-04-22T12:54:31.035Z,28.33
2018-04-22T12:56:59.407Z,28.04
2018-04-22T12:59:29.489Z,28.23
2018-04-22T13:01:57.864Z,27.19
2018-04-22T13:04:26.268Z,27.34
2018-04-22T13:06:54.676Z,27.56
2018-04-22T13:09:23.290Z,27.31
2018-04-22T13:11:52.884Z,27.14
2018-04-22T13:14:21.336Z,27.01
2018-04-22T13:16:49.762Z,27.38
2018-04-22T13:19:18.170Z,27.25
2018-04-22T13:21:46.547Z,26.79
2018-04-22T13:24:14.927Z,27.02
2018-04-22T13:26:43.296Z,27.04
2018-04-22T13:29:11.872Z,26.92
2018-04-22T13:31:40.316Z,26.76
2018-04-22T13:34:08.748Z,26.81
2018-04-22T13:36:37.124Z,26.71
2018-04-22T13:39:05.697Z,26.30
2018-04-22T13:41:34.111Z,25.89
2018-04-22T13:44:02.548Z,26.38
2018-04-22T13:46:30.917Z,26.62
2018-04-22T13:48:59.300Z,26.43
2018-04-22T13:51:27.671Z,26.47
2018-04-22T13:53:56.093Z,26.25
2018-04-22T13:56:24.460Z,26.46
2018-04-22T13:58:52.854Z,26.29
2018-04-22T14:01:21.221Z,26.34
2018-04-22T14:03:49.602Z,26.79
2018-04-22T14:06:17.815Z,26.52
2018-04-22T14:08:47.013Z,26.44
2018-04-22T14:11:15.463Z,26.24
2018-04-22T14:13:43.891Z,26.20
2018-04-22T14:16:12.183Z,26.40
2018-04-22T14:18:40.759Z,26.55
2018-04-22T14:21:09.187Z,26.62
2018-04-22T14:23:37.558Z,26.28
2018-04-22T14:26:05.995Z,26.21
2018-04-22T14:28:34.418Z,26.39
2018-04-22T14:31:02.817Z,26.33
2018-04-22T14:33:31.194Z,25.96
2018-04-22T14:35:59.611Z,26.12
2018-04-22T14:38:27.980Z,26.10
2018-04-22T14:40:56.401Z,26.34
2018-04-22T14:43:24.778Z,25.91
2018-04-22T14:46:04.408Z,25.84
2018-04-22T14:48:32.348Z,26.01
2018-04-22T14:51:00.763Z,25.86
2018-04-22T14:53:29.137Z,25.89
2018-04-22T14:55:57.525Z,25.46
2018-04-22T14:58:25.898Z,25.30
2018-04-22T15:00:54.319Z,25.00
2018-04-22T15:03:22.736Z,24.98
2018-04-22T15:05:51.104Z,24.84
2018-04-22T15:08:19.532Z,25.17
2018-04-22T15:10:47.958Z,25.30
2018-04-22T15:13:16.323Z,25.33
2018-04-22T15:15:44.701Z,25.29
2018-04-22T15:18:13.127Z,24.78
2018-04-22T15:20:41.505Z,24.63
2018-04-22T15:23:09.863Z,24.83
2018-04-22T15:25:38.286Z,25.10
2018-04-22T15:28:06.712Z,24.94
2018-04-22T15:30:35.131Z,25.24
2018-04-22T15:33:03.506Z,25.32
2018-04-22T15:35:31.968Z,25.37
2018-04-22T15:38:00.325Z,25.46
2018-04-22T15:40:28.725Z,25.53
2018-04-22T15:42:57.151Z,25.69
2018-04-22T15:45:25.692Z,25.58
2018-04-22T15:47:54.108Z,25.87
2018-04-22T15:50:22.511Z,26.02
2018-04-22T15:52:50.911Z,25.83
2018-04-22T15:55:19.319Z,25.72
2018-04-22T15:57:47.692Z,25.68
2018-04-22T16:00:16.098Z,25.83
2018-04-22T16:02:45.224Z,25.74
2018-04-22T16:05:13.675Z,26.12
2018-04-22T16:07:42.086Z,26.22
2018-04-22T16:10:11.231Z,25.91
2018-04-22T16:12:39.564Z,25.89
2018-04-22T16:15:07.981Z,26.00
2018-04-22T16:17:36.360Z,26.23
2018-04-22T16:20:04.808Z,26.20
2018-04-22T16:22:33.235Z,26.09
2018-04-22T16:25:01.681Z,25.99
2018-04-22T16:27:30.083Z,26.00
2018-04-22T16:29:58.500Z,26.01
2018-04-22T16:32:26.871Z,25.99
2018-04-22T16:34:55.241Z,26.22
2018-04-22T16:37:23.619Z,26.28
2018-04-22T16:39:52.015Z,26.39
2018-04-22T16:42:20.431Z,26.45
2018-04-22T16:44:48.814Z,26.56
2018-04-22T16:47:17.199Z,26.75
2018-04-22T16:49:45.577Z,27.11
2018-04-22T16:52:13.946Z,27.36
2018-04-22T16:54:42.317Z,27.49
2018-04-22T16:57:10.789Z,27.85
2018-04-22T16:59:39.224Z,27.88
2018-04-22T17:02:07.619Z,28.21
2018-04-22T17:04:35.989Z,28.82
2018-04-22T17:07:04.383Z,28.89
2018-04-22T17:09:32.795Z,29.48
2018-04-22T17:12:01.205Z,29.91
2018-04-22T17:14:29.579Z,29.67
2018-04-22T17:16:58.907Z,30.24
2018-04-22T17:19:27.279Z,30.39
2018-04-22T17:21:55.651Z,30.75
2018-04-22T17:24:24.292Z,31.40
2018-04-22T17:26:52.712Z,31.49
2018-04-22T17:29:21.137Z,32.10
2018-04-22T17:31:49.593Z,31.50
2018-04-22T17:34:18.147Z,31.61
2018-04-22T17:36:46.527Z,31.33
2018-04-22T17:39:14.942Z,31.08
2018-04-22T17:41:43.368Z,31.09
2018-04-22T17:44:11.984Z,29.90
2018-04-22T17:46:40.418Z,30.09
2018-04-22T17:49:08.869Z,30.04
2018-04-22T17:51:37.041Z,29.77
2018-04-22T17:54:05.393Z,29.70
2018-04-22T17:56:33.802Z,29.85
2018-04-22T17:59:02.194Z,29.77
2018-04-22T18:01:30.574Z,29.82
2018-04-22T18:03:59.033Z,29.81
2018-04-22T18:06:27.411Z,29.97
2018-04-22T18:08:56.689Z,29.54
2018-04-22T18:11:25.190Z,29.44
2018-04-22T18:13:53.614Z,30.28
2018-04-22T18:16:22.003Z,29.01
2018-04-22T18:18:50.202Z,30.06
2018-04-22T18:21:18.590Z,29.44
2018-04-22T18:23:46.983Z,29.19
2018-04-22T18:26:15.759Z,29.17
2018-04-22T18:28:44.152Z,29.29
2018-04-22T18:31:12.529Z,29.66
2018-04-22T18:33:40.917Z,29.67
2018-04-22T18:36:09.412Z,29.92
2018-04-22T18:38:38.652Z,30.16
2018-04-22T18:41:07.216Z,30.25
2018-04-22T18:43:35.583Z,30.12
2018-04-22T18:46:08.038Z,29.56
2018-04-22T18:48:37.319Z,31.11
2018-04-22T18:51:05.750Z,30.54
2018-04-22T18:53:34.881Z,30.12
2018-04-22T18:56:03.861Z,29.87
2018-04-22T18:58:32.265Z,31.14
2018-04-22T19:01:03.869Z,31.15
2018-04-22T19:03:33.727Z,31.75
2018-04-22T19:06:02.860Z,31.38
2018-04-22T19:08:31.228Z,30.82
2018-04-22T19:11:06.228Z,30.57
2018-04-22T19:13:34.725Z,30.88
2018-04-22T19:16:04.826Z,31.30
2018-04-22T19:18:35.284Z,30.98
2018-04-22T19:21:09.393Z,30.40
2018-04-22T19:23:37.780Z,30.57
2018-04-22T19:26:06.160Z,30.94
2018-04-22T19:28:34.562Z,30.91
2018-04-22T19:31:02.951Z,30.74
2018-04-22T19:33:31.360Z,31.08
2018-04-22T19:35:59.786Z,31.47
2018-04-22T19:38:28.150Z,31.37
2018-04-22T19:40:58.789Z,31.82
2018-04-22T19:43:27.174Z,31.79
2018-04-22T19:45:55.599Z,31.94
2018-04-22T19:48:23.960Z,31.99
2018-04-22T19:50:52.364Z,32.44
2018-04-22T19:53:20.779Z,32.20
2018-04-22T19:55:49.209Z,33.57
2018-04-22T19:58:17.718Z,36.01
2018-04-22T20:00:46.303Z,36.70
2018-04-22T20:03:14.698Z,37.93
2018-04-22T20:05:43.062Z,36.56
2018-04-22T20:08:11.430Z,37.62
2018-04-22T20:10:39.807Z,38.35
2018-04-22T20:13:08.299Z,37.28
2018-04-22T20:15:36.715Z,37.70
2018-04-22T20:18:05.260Z,37.40
2018-04-22T20:20:33.991Z,37.67
2018-04-22T20:23:02.472Z,37.75
2018-04-22T20:25:30.895Z,37.25
2018-04-22T20:27:59.335Z,35.63
2018-04-22T20:30:27.703Z,37.00
2018-04-22T20:32:56.166Z,35.82
2018-04-22T20:35:24.550Z,36.07
2018-04-22T20:37:53.876Z,35.21
2018-04-22T20:40:22.365Z,35.55
2018-04-22T20:42:50.785Z,35.50
2018-04-22T20:45:19.196Z,34.96
2018-04-22T20:47:47.575Z,34.77
2018-04-22T20:50:15.980Z,35.27
2018-04-22T20:52:44.367Z,34.60
2018-04-22T20:55:12.747Z,34.15
2018-04-22T20:57:41.159Z,33.99
2018-04-22T21:00:10.760Z,34.01
2018-04-22T21:02:39.194Z,33.52
2018-04-22T21:05:07.555Z,33.63
2018-04-22T21:07:35.995Z,33.45
2018-04-22T21:10:04.368Z,33.56
2018-04-22T21:12:32.734Z,33.58
2018-04-22T21:15:01.961Z,33.75
2018-04-22T21:17:30.344Z,33.98
2018-04-22T21:19:58.710Z,33.90
2018-04-22T21:22:27.079Z,34.00
2018-04-22T21:24:55.520Z,33.83
2018-04-22T21:27:23.886Z,33.72
2018-04-22T21:29:52.282Z,33.49
2018-04-22T21:32:20.685Z,33.77
2018-04-22T21:34:49.062Z,34.00
2018-04-22T21:37:17.472Z,34.08
2018-04-22T21:39:45.862Z,34.22
2018-04-22T21:42:14.279Z,34.31
2018-04-22T21:44:42.663Z,34.35
2018-04-22T21:47:11.081Z,34.15
2018-04-22T21:49:39.491Z,34.41
2018-04-22T21:52:07.871Z,36.04
2018-04-22T21:54:36.242Z,36.24
2018-04-22T21:57:04.620Z,36.75
2018-04-22T21:59:33.016Z,38.33
2018-04-22T22:02:01.387Z,38.87
2018-04-22T22:04:29.781Z,39.33
2018-04-22T22:06:58.388Z,39.11
2018-04-22T22:09:26.768Z,39.47
2018-04-22T22:11:55.204Z,39.47
2018-04-22T22:14:23.576Z,40.24
2018-04-22T22:16:51.961Z,40.90
2018-04-22T22:19:20.331Z,41.44
2018-04-22T22:21:48.715Z,42.26
2018-04-22T22:24:17.111Z,43.00
2018-04-22T22:26:45.491Z,43.26
2018-04-22T22:29:13.866Z,44.22
2018-04-22T22:31:42.551Z,43.93
2018-04-22T22:34:10.919Z,44.33
2018-04-22T22:36:39.397Z,44.74
2018-04-22T22:39:07.786Z,44.96
2018-04-22T22:41:36.157Z,44.91
2018-04-22T22:44:04.540Z,45.20
2018-04-22T22:46:32.669Z,45.39
2018-04-22T22:49:01.046Z,45.63
2018-04-22T22:51:29.436Z,45.09
2018-04-22T22:53:57.814Z,44.66
2018-04-22T22:56:26.200Z,43.91
2018-04-22T22:58:54.621Z,44.19
2018-04-22T23:01:23.000Z,43.72
2018-04-22T23:03:51.382Z,44.35
2018-04-22T23:06:19.808Z,44.85
2018-04-22T23:08:48.179Z,44.48
2018-04-22T23:11:16.316Z,44.47
2018-04-22T23:13:44.686Z,44.16
2018-04-22T23:16:13.063Z,43.62
2018-04-22T23:18:41.435Z,43.76
2018-04-22T23:21:09.810Z,44.67
2018-04-22T23:23:38.254Z,43.76
2018-04-22T23:26:06.622Z,43.95
2018-04-22T23:28:34.991Z,43.37
2018-04-22T23:31:03.367Z,43.87
2018-04-22T23:33:31.751Z,44.90
2018-04-22T23:36:00.115Z,44.10
2018-04-22T23:38:28.497Z,44.24
2018-04-22T23:40:56.932Z,45.35
2018-04-22T23:43:25.336Z,47.30
2018-04-22T23:45:53.748Z,47.72
2018-04-22T23:48:21.880Z,47.86
2018-04-22T23:50:50.246Z,47.13
2018-04-22T23:53:18.614Z,46.92
2018-04-22T23:55:46.998Z,47.89
2018-04-22T23:58:15.377Z,48.08
